Time;durP1;ratioP1;P1;durP2;ratioP2;P2;SDS_P1;SDS_P2;PMS_P1;PMS_P2;Temp;Humidity;BMP_temperature;BMP_pressure;BME280_temperature;BME280_humidity;BME280_pressure;Samples;Min_cycle;Max_cycle;Signal;HPM_P1;HPM_P2
2023/05/21 00:01:48;;;;;;;6.78;4.70;;;20.50;51.90;;;;;;2487562;55;20996;-71
2023/05/21 00:04:16;;;;;;;8.43;5.05;;;20.50;51.90;;;;;;2492228;55;20976;-70
2023/05/21 00:06:43;;;;;;;6.40;4.95;;;20.50;52.10;;;;;;2263378;56;20968;-73
2023/05/21 00:09:11;;;;;;;6.97;5.22;;;20.50;52.10;;;;;;2487326;55;20992;-70
2023/05/21 00:11:39;;;;;;;6.25;4.78;;;20.40;52.00;;;;;;2262429;56;21028;-70
2023/05/21 00:14:05;;;;;;;6.45;4.60;;;20.50;52.20;;;;;;2491748;55;20964;-71
2023/05/21 00:16:31;;;;;;;7.35;3.90;;;20.40;52.10;;;;;;2489001;55;21683;-71
2023/05/21 00:19:00;;;;;;;6.50;4.57;;;20.40;52.10;;;;;;2491598;55;20928;-74
2023/05/21 00:21:28;;;;;;;6.50;4.40;;;20.40;52.10;;;;;;2262139;56;20933;-70
2023/05/21 00:23:55;;;;;;;5.95;4.43;;;20.40;52.20;;;;;;2470009;55;21007;-70
2023/05/21 00:26:25;;;;;;;6.15;4.22;;;20.30;52.10;;;;;;2485996;55;20924;-72
2023/05/21 00:28:51;;;;;;;6.12;4.30;;;20.30;52.20;;;;;;2262709;56;20933;-74
2023/05/21 00:31:18;;;;;;;6.37;4.22;;;20.30;52.20;;;;;;2491622;55;20928;-74
2023/05/21 00:33:45;;;;;;;6.95;4.40;;;20.30;52.20;;;;;;2262638;56;21489;-70
2023/05/21 00:36:13;;;;;;;6.97;4.25;;;20.20;52.20;;;;;;2491571;55;21354;-72
2023/05/21 00:38:42;;;;;;;6.22;4.30;;;20.20;52.30;;;;;;2491192;55;21376;-73
2023/05/21 00:41:09;;;;;;;7.10;4.72;;;20.20;52.30;;;;;;2262796;56;21417;-70
2023/05/21 00:43:39;;;;;;;5.82;4.22;;;20.20;52.40;;;;;;2262758;56;21489;-73
2023/05/21 00:46:10;;;;;;;5.62;3.90;;;20.10;52.30;;;;;;2262803;56;20948;-71
2023/05/21 00:48:38;;;;;;;5.70;4.23;;;20.10;52.30;;;;;;2491343;55;21004;-71
2023/05/21 00:51:05;;;;;;;6.95;4.37;;;20.10;52.30;;;;;;2491681;55;22159;-69
2023/05/21 00:53:33;;;;;;;6.78;4.10;;;20.00;52.30;;;;;;2264131;56;21046;-72
2023/05/21 00:56:01;;;;;;;6.65;4.85;;;20.00;52.30;;;;;;2259494;56;21537;-72
2023/05/21 00:58:28;;;;;;;7.18;4.22;;;19.90;52.30;;;;;;2262671;56;20933;-74
2023/05/21 01:00:55;;;;;;;6.65;3.75;;;20.00;52.50;;;;;;2491212;55;21068;-69
2023/05/21 01:03:21;;;;;;;5.82;3.80;;;19.90;53.00;;;;;;2491209;55;21426;-72
2023/05/21 01:05:53;;;;;;;5.12;3.55;;;19.90;52.40;;;;;;2262328;56;21020;-72
2023/05/21 01:08:21;;;;;;;5.10;3.28;;;19.80;52.30;;;;;;2261831;56;20957;-69
2023/05/21 01:10:48;;;;;;;6.03;3.58;;;19.80;52.30;;;;;;2262734;56;20949;-70
2023/05/21 01:13:15;;;;;;;6.12;3.53;;;19.70;52.30;;;;;;2262643;56;21418;-70
2023/05/21 01:15:43;;;;;;;6.18;3.65;;;19.70;52.30;;;;;;2262791;56;21021;-69
2023/05/21 01:18:11;;;;;;;5.45;3.40;;;19.70;52.40;;;;;;2262399;56;20973;-70
2023/05/21 01:20:38;;;;;;;5.28;3.65;;;19.60;52.30;;;;;;2262156;56;20970;-70
2023/05/21 01:23:04;;;;;;;5.43;3.22;;;19.60;52.40;;;;;;2263393;56;21034;-70
2023/05/21 01:25:30;;;;;;;6.70;3.70;;;19.50;52.40;;;;;;2467845;55;21016;-71
2023/05/21 01:27:57;;;;;;;5.87;3.97;;;19.50;52.40;;;;;;2256104;56;20918;-75
2023/05/21 01:30:23;;;;;;;5.37;3.45;;;19.50;52.50;;;;;;2262705;56;21004;-70
2023/05/21 01:33:05;;;;;;;4.80;2.95;;;19.40;52.50;;;;;;2491419;55;20977;-70
2023/05/21 01:35:38;;;;;;;5.90;4.10;;;19.40;52.60;;;;;;2262428;56;20920;-69
2023/05/21 01:38:33;;;;;;;5.95;3.85;;;19.40;52.60;;;;;;2262816;56;20947;-70
2023/05/21 01:41:11;;;;;;;5.70;4.12;;;19.30;52.80;;;;;;2490979;55;21295;-70
2023/05/21 01:43:38;;;;;;;5.97;3.83;;;19.30;52.90;;;;;;2486468;55;21018;-72
2023/05/21 01:46:08;;;;;;;6.60;4.30;;;19.30;52.80;;;;;;2262251;56;21750;-70
2023/05/21 01:48:34;;;;;;;4.78;3.37;;;19.20;52.80;;;;;;2491634;55;20921;-71
2023/05/21 01:51:02;;;;;;;5.90;3.80;;;19.20;52.80;;;;;;2262678;56;20957;-72
2023/05/21 01:53:29;;;;;;;5.62;3.83;;;19.10;52.70;;;;;;2262235;56;20949;-71
2023/05/21 01:55:55;;;;;;;7.60;5.25;;;19.10;52.80;;;;;;2262773;56;20941;-70
2023/05/21 01:58:23;;;;;;;7.87;4.97;;;19.10;52.90;;;;;;2262391;56;21004;-70
2023/05/21 02:00:52;;;;;;;6.57;4.97;;;19.10;53.10;;;;;;2262871;56;20952;-70
2023/05/21 02:03:19;;;;;;;6.65;4.82;;;19.00;53.00;;;;;;2491215;55;20984;-74
2023/05/21 02:05:46;;;;;;;8.40;5.07;;;19.00;53.10;;;;;;2491762;55;20992;-70
2023/05/21 02:08:13;;;;;;;7.55;4.53;;;19.00;53.10;;;;;;2262830;56;21063;-70
2023/05/21 02:10:40;;;;;;;6.60;4.20;;;19.00;53.20;;;;;;2485342;55;21458;-71
2023/05/21 02:13:07;;;;;;;6.65;4.07;;;19.00;53.20;;;;;;2262708;56;20964;-74
2023/05/21 02:15:33;;;;;;;6.20;4.20;;;19.00;53.20;;;;;;2262718;56;20972;-71
2023/05/21 02:18:01;;;;;;;5.25;3.67;;;18.90;53.10;;;;;;2262356;56;21407;-71
2023/05/21 02:20:27;;;;;;;4.97;3.55;;;18.90;53.10;;;;;;2491241;55;20921;-69
2023/05/21 02:22:56;;;;;;;5.68;3.85;;;18.90;53.10;;;;;;2261946;56;21406;-69
2023/05/21 02:25:22;;;;;;;5.18;3.50;;;18.90;53.10;;;;;;2262793;56;20948;-70
2023/05/21 02:27:52;;;;;;;5.65;4.05;;;18.80;53.00;;;;;;2486363;55;20925;-70
2023/05/21 02:30:18;;;;;;;6.87;3.53;;;18.80;53.10;;;;;;2262633;56;20941;-71
2023/05/21 02:32:47;;;;;;;6.20;3.72;;;18.70;53.10;;;;;;2491522;55;20988;-70
2023/05/21 02:35:15;;;;;;;6.55;3.45;;;18.70;53.10;;;;;;2491333;55;20952;-70
2023/05/21 02:37:45;;;;;;;6.30;4.37;;;18.70;53.20;;;;;;2261187;56;21514;-70
2023/05/21 02:40:14;;;;;;;6.62;4.82;;;18.70;53.30;;;;;;2262062;56;20960;-71
2023/05/21 02:42:43;;;;;;;5.60;3.35;;;18.60;53.30;;;;;;2490830;55;20956;-71
2023/05/21 02:45:10;;;;;;;7.87;4.37;;;18.60;53.30;;;;;;2262180;56;20964;-70
2023/05/21 02:47:37;;;;;;;5.82;3.85;;;18.60;53.40;;;;;;2262398;56;20992;-70
2023/05/21 02:50:07;;;;;;;7.28;3.95;;;18.60;53.40;;;;;;2491041;55;21401;-69
2023/05/21 02:52:34;;;;;;;4.82;3.37;;;18.60;53.50;;;;;;2258299;56;20973;-69
2023/05/21 02:55:00;;;;;;;6.62;4.45;;;18.50;53.40;;;;;;2262509;56;20952;-70
2023/05/21 02:57:27;;;;;;;7.68;5.07;;;18.50;53.40;;;;;;2491458;55;20949;-70
2023/05/21 02:59:53;;;;;;;7.45;5.03;;;18.50;53.50;;;;;;2265460;56;20963;-70
2023/05/21 03:02:19;;;;;;;9.50;6.22;;;18.50;53.60;;;;;;2258472;56;21112;-69
2023/05/21 03:04:46;;;;;;;6.95;5.47;;;18.40;53.70;;;;;;2262790;56;21478;-70
2023/05/21 03:07:19;;;;;;;6.55;4.95;;;18.40;53.80;;;;;;2262799;56;21069;-72
2023/05/21 03:09:45;;;;;;;6.35;4.28;;;18.40;53.80;;;;;;2261209;56;21966;-70
2023/05/21 03:12:15;;;;;;;7.25;5.05;;;18.40;53.80;;;;;;2262707;56;20984;-72
2023/05/21 03:14:42;;;;;;;8.18;5.75;;;18.40;53.90;;;;;;2491575;55;20932;-70
2023/05/21 03:17:12;;;;;;;7.07;4.32;;;18.40;54.00;;;;;;2491045;55;21704;-70
2023/05/21 03:19:40;;;;;;;6.47;4.22;;;18.40;54.00;;;;;;2262352;56;21753;-68
2023/05/21 03:22:07;;;;;;;6.82;4.30;;;18.40;54.00;;;;;;2261076;56;21102;-70
2023/05/21 03:24:34;;;;;;;6.37;4.05;;;18.30;53.80;;;;;;2261661;56;20934;-69
2023/05/21 03:27:00;;;;;;;5.95;4.00;;;18.30;53.80;;;;;;2491643;55;20982;-73
2023/05/21 03:29:27;;;;;;;6.28;4.20;;;18.30;53.90;;;;;;2492100;55;20964;-70
2023/05/21 03:31:53;;;;;;;7.43;4.70;;;18.30;53.90;;;;;;2491745;55;20949;-70
2023/05/21 03:34:20;;;;;;;7.15;4.80;;;18.30;54.00;;;;;;2263564;56;21033;-69
2023/05/21 03:36:46;;;;;;;7.55;4.68;;;18.20;54.60;;;;;;2472488;55;21888;-73
2023/05/21 03:39:13;;;;;;;6.80;4.95;;;18.20;54.00;;;;;;2480723;55;20941;-72
2023/05/21 03:41:39;;;;;;;6.65;4.12;;;18.20;54.10;;;;;;2263218;56;21394;-71
2023/05/21 03:44:06;;;;;;;8.05;4.30;;;18.20;54.10;;;;;;2264611;56;21566;-73
2023/05/21 03:46:32;;;;;;;5.85;4.45;;;18.20;54.10;;;;;;2252018;56;21031;-69
2023/05/21 03:48:59;;;;;;;5.25;4.10;;;18.10;54.00;;;;;;2478736;55;20943;-70
2023/05/21 03:51:26;;;;;;;6.45;4.00;;;18.10;54.00;;;;;;2263268;55;20984;-74
2023/05/21 03:53:52;;;;;;;5.55;4.00;;;18.10;54.00;;;;;;2262639;56;20961;-71
2023/05/21 03:56:18;;;;;;;5.22;3.60;;;18.10;54.00;;;;;;2262945;56;20972;-70
2023/05/21 03:58:45;;;;;;;5.22;3.47;;;18.10;54.00;;;;;;2263506;56;21092;-70
2023/05/21 04:01:12;;;;;;;6.30;3.90;;;18.00;54.00;;;;;;2264539;56;20966;-69
2023/05/21 04:03:39;;;;;;;5.60;3.85;;;18.00;54.00;;;;;;2259794;56;21744;-69
2023/05/21 04:06:08;;;;;;;6.32;4.07;;;18.00;54.00;;;;;;2262645;56;21414;-70
2023/05/21 04:08:36;;;;;;;5.80;3.87;;;18.00;54.10;;;;;;2262833;56;21040;-72
2023/05/21 04:11:06;;;;;;;6.78;4.45;;;17.90;54.10;;;;;;2265729;56;20957;-70
2023/05/21 04:13:33;;;;;;;6.05;4.15;;;17.90;54.10;;;;;;2486777;55;20975;-71
2023/05/21 04:16:02;;;;;;;6.37;3.62;;;17.90;54.20;;;;;;2262881;56;21008;-70
2023/05/21 04:18:28;;;;;;;5.85;4.22;;;17.90;54.30;;;;;;2262710;56;21044;-70
2023/05/21 04:20:54;;;;;;;5.93;4.30;;;17.90;54.30;;;;;;2491278;55;21464;-70
2023/05/21 04:23:22;;;;;;;5.40;3.72;;;17.80;54.90;;;;;;2262362;56;20982;-70
2023/05/21 04:25:49;;;;;;;5.28;3.50;;;17.80;54.30;;;;;;2489812;55;21450;-72
2023/05/21 04:28:20;;;;;;;5.90;3.75;;;17.80;54.40;;;;;;2490961;55;21023;-72
2023/05/21 04:30:46;;;;;;;5.28;3.78;;;17.80;54.40;;;;;;2262043;56;20951;-70
2023/05/21 04:33:16;;;;;;;6.15;4.18;;;17.80;54.40;;;;;;2261782;56;21758;-70
2023/05/21 04:35:45;;;;;;;8.15;5.22;;;17.80;54.50;;;;;;2262836;56;21077;-69
2023/05/21 04:38:12;;;;;;;11.77;7.43;;;17.80;54.50;;;;;;2491561;55;20996;-71
2023/05/21 04:40:39;;;;;;;16.80;9.50;;;17.80;54.50;;;;;;2262475;56;21731;-72
2023/05/21 04:43:06;;;;;;;18.00;10.35;;;17.80;54.60;;;;;;2262263;56;21032;-69
2023/05/21 04:45:33;;;;;;;18.10;10.57;;;17.80;54.60;;;;;;2491639;55;20952;-70
2023/05/21 04:47:59;;;;;;;12.95;7.85;;;17.80;54.70;;;;;;2264726;56;20990;-70
2023/05/21 04:50:29;;;;;;;11.30;6.85;;;17.80;54.80;;;;;;2464069;55;20893;-73
2023/05/21 04:52:57;;;;;;;10.20;6.75;;;17.80;54.80;;;;;;2491053;55;21433;-70
2023/05/21 04:55:23;;;;;;;10.60;7.22;;;17.80;54.90;;;;;;2490932;55;20968;-68
2023/05/21 04:57:50;;;;;;;9.00;5.93;;;17.80;55.10;;;;;;2262311;56;21002;-70
2023/05/21 05:00:16;;;;;;;7.50;5.10;;;17.80;55.20;;;;;;2261608;56;20960;-72
2023/05/21 05:02:43;;;;;;;9.35;6.18;;;17.80;55.20;;;;;;2262061;56;20977;-73
2023/05/21 05:05:10;;;;;;;7.80;5.40;;;17.80;55.30;;;;;;2262364;56;20940;-70
2023/05/21 05:07:36;;;;;;;7.87;5.20;;;17.80;55.30;;;;;;2261496;56;20937;-71
2023/05/21 05:10:04;;;;;;;8.95;5.57;;;17.80;55.30;;;;;;2261878;56;20944;-70
2023/05/21 05:12:30;;;;;;;7.45;5.47;;;17.80;55.40;;;;;;2262347;56;20976;-69
2023/05/21 05:15:00;;;;;;;7.30;5.50;;;17.90;55.50;;;;;;2261808;56;21048;-75
2023/05/21 05:17:27;;;;;;;9.95;6.90;;;17.90;55.60;;;;;;2262464;56;20940;-73
2023/05/21 05:19:53;;;;;;;10.48;7.28;;;17.90;55.60;;;;;;2490559;55;20996;-70
2023/05/21 05:22:25;;;;;;;10.32;6.00;;;18.00;55.90;;;;;;2490401;55;21000;-70
2023/05/21 05:24:51;;;;;;;8.60;5.95;;;18.00;56.00;;;;;;2260770;56;21533;-72
2023/05/21 05:27:17;;;;;;;10.00;6.15;;;18.00;55.90;;;;;;2490781;55;21004;-73
2023/05/21 05:29:44;;;;;;;8.38;5.43;;;18.10;56.00;;;;;;2262926;56;21401;-72
2023/05/21 05:32:11;;;;;;;7.70;5.35;;;18.10;56.00;;;;;;2489588;55;21999;-70
2023/05/21 05:34:37;;;;;;;8.48;5.65;;;18.10;56.00;;;;;;2490974;55;20940;-74
2023/05/21 05:37:04;;;;;;;7.87;5.62;;;18.20;56.20;;;;;;2261916;56;20944;-69
2023/05/21 05:39:30;;;;;;;10.43;6.28;;;18.20;56.20;;;;;;2489043;55;20970;-70
2023/05/21 05:41:58;;;;;;;8.23;6.00;;;18.20;56.20;;;;;;2259408;56;20897;-72
2023/05/21 05:44:25;;;;;;;7.95;5.80;;;18.30;56.30;;;;;;2490631;55;21056;-70
2023/05/21 05:46:51;;;;;;;9.00;6.15;;;18.30;56.30;;;;;;2490666;55;20988;-73
2023/05/21 05:49:18;;;;;;;9.18;6.00;;;18.30;57.10;;;;;;2262073;56;20964;-70
2023/05/21 05:51:44;;;;;;;10.48;7.65;;;18.40;56.40;;;;;;2261994;56;20933;-69
2023/05/21 05:54:10;;;;;;;9.77;6.55;;;18.40;56.50;;;;;;2262749;56;21048;-74
2023/05/21 05:56:45;;;;;;;10.30;7.18;;;18.50;56.70;;;;;;2490574;55;21036;-71
2023/05/21 05:59:12;;;;;;;9.77;6.78;;;18.50;56.70;;;;;;2489677;55;21012;-73
2023/05/21 06:01:38;;;;;;;11.12;7.35;;;18.60;56.80;;;;;;2491082;55;20988;-72
2023/05/21 06:04:05;;;;;;;11.70;7.37;;;18.60;56.80;;;;;;2486025;55;20968;-70
2023/05/21 06:06:33;;;;;;;11.20;7.85;;;18.70;56.80;;;;;;2261701;56;20952;-70
2023/05/21 06:09:00;;;;;;;10.95;8.13;;;18.70;56.80;;;;;;2490009;55;20996;-69
2023/05/21 06:11:26;;;;;;;11.07;7.43;;;18.80;56.80;;;;;;2262150;56;20912;-70
2023/05/21 06:13:53;;;;;;;11.63;7.95;;;18.80;56.80;;;;;;2262012;56;20956;-70
2023/05/21 06:16:20;;;;;;;10.50;7.37;;;18.90;56.90;;;;;;2261816;56;20936;-70
2023/05/21 06:18:46;;;;;;;10.57;7.28;;;18.90;56.90;;;;;;2262208;56;21044;-70
2023/05/21 06:21:13;;;;;;;8.35;6.18;;;18.90;56.90;;;;;;2262961;56;20960;-70
2023/05/21 06:23:39;;;;;;;10.38;7.37;;;19.00;57.00;;;;;;2490863;55;20936;-70
2023/05/21 06:26:06;;;;;;;10.40;7.07;;;19.00;57.00;;;;;;2490110;55;21001;-70
2023/05/21 06:28:36;;;;;;;9.98;6.78;;;19.10;57.10;;;;;;2262898;56;20936;-70
2023/05/21 06:31:04;;;;;;;9.43;6.72;;;19.10;57.10;;;;;;2487115;55;20995;-70
2023/05/21 06:33:30;;;;;;;10.07;7.20;;;19.10;57.00;;;;;;2259774;55;20988;-70
2023/05/21 06:35:57;;;;;;;9.90;7.55;;;19.20;57.10;;;;;;2491174;55;21704;-73
2023/05/21 06:38:23;;;;;;;10.43;6.87;;;19.20;57.10;;;;;;2262427;56;20945;-71
2023/05/21 06:40:50;;;;;;;11.27;7.32;;;19.20;57.10;;;;;;2262310;56;20969;-72
2023/05/21 06:43:16;;;;;;;10.63;7.62;;;19.30;57.20;;;;;;2489947;55;20996;-70
2023/05/21 06:45:43;;;;;;;11.38;7.37;;;19.30;57.20;;;;;;2262497;56;20976;-70
2023/05/21 06:48:11;;;;;;;10.27;6.75;;;19.40;57.30;;;;;;2262002;56;20953;-75
2023/05/21 06:50:37;;;;;;;10.38;7.20;;;19.40;57.30;;;;;;2262411;56;20956;-71
2023/05/21 06:53:04;;;;;;;11.02;8.02;;;19.50;57.40;;;;;;2262116;56;21549;-70
2023/05/21 06:55:30;;;;;;;9.90;6.85;;;19.50;57.30;;;;;;2262881;56;20992;-71
2023/05/21 06:57:57;;;;;;;11.88;8.18;;;19.60;57.40;;;;;;2490641;55;20952;-74
2023/05/21 07:00:23;;;;;;;10.23;7.15;;;19.70;57.40;;;;;;2490831;55;21713;-73
2023/05/21 07:02:49;;;;;;;11.10;7.95;;;19.70;57.40;;;;;;2491143;55;20948;-70
2023/05/21 07:05:17;;;;;;;11.25;8.07;;;19.80;57.40;;;;;;2260956;56;21042;-70
2023/05/21 07:07:43;;;;;;;10.68;7.70;;;19.80;57.50;;;;;;2491009;55;20952;-71
2023/05/21 07:10:11;;;;;;;10.88;7.60;;;19.90;57.40;;;;;;2490913;55;21028;-70
2023/05/21 07:12:40;;;;;;;10.70;7.43;;;19.90;57.40;;;;;;2262553;56;20924;-73
2023/05/21 07:15:09;;;;;;;11.50;7.32;;;20.00;57.50;;;;;;2261591;56;20953;-71
2023/05/21 07:17:37;;;;;;;12.15;8.60;;;20.10;58.20;;;;;;2491609;55;20941;-70
2023/05/21 07:20:07;;;;;;;12.82;8.55;;;20.10;57.60;;;;;;2261774;56;20996;-71
2023/05/21 07:22:33;;;;;;;10.32;7.93;;;20.20;57.80;;;;;;2490989;55;23055;-71
2023/05/21 07:24:59;;;;;;;10.77;7.53;;;20.20;57.70;;;;;;2261847;56;21765;-71
2023/05/21 07:27:26;;;;;;;10.07;7.12;;;20.30;57.70;;;;;;2490291;55;20968;-69
2023/05/21 07:29:52;;;;;;;9.55;6.78;;;20.40;57.70;;;;;;2262225;56;21356;-70
2023/05/21 07:32:19;;;;;;;9.80;6.70;;;20.50;57.70;;;;;;2490648;55;20983;-73
2023/05/21 07:34:46;;;;;;;10.73;7.37;;;20.50;57.60;;;;;;2262579;56;21978;-71
2023/05/21 07:37:13;;;;;;;9.32;6.95;;;20.60;57.70;;;;;;2262357;56;20996;-71
2023/05/21 07:39:40;;;;;;;8.55;6.28;;;20.70;57.70;;;;;;2263339;56;22347;-73
2023/05/21 07:42:07;;;;;;;9.20;6.55;;;20.70;57.60;;;;;;2491381;55;20905;-74
2023/05/21 07:44:34;;;;;;;9.80;7.10;;;20.80;57.50;;;;;;2491299;55;21449;-71
2023/05/21 07:47:00;;;;;;;10.70;7.47;;;20.90;57.60;;;;;;2491173;55;20988;-71
2023/05/21 07:49:27;;;;;;;9.38;6.85;;;20.90;57.50;;;;;;2263315;56;21009;-68
2023/05/21 07:51:53;;;;;;;10.23;7.30;;;20.90;58.10;;;;;;2491925;55;20953;-72
2023/05/21 07:54:21;;;;;;;10.20;7.18;;;21.00;57.50;;;;;;2266077;56;20969;-72
2023/05/21 07:56:47;;;;;;;10.45;7.70;;;21.10;57.40;;;;;;2490769;55;20928;-71
2023/05/21 07:59:18;;;;;;;10.43;6.87;;;21.10;57.40;;;;;;2261479;56;21017;-73
2023/05/21 08:01:45;;;;;;;9.00;6.72;;;21.20;57.50;;;;;;2486457;55;20933;-70
2023/05/21 08:04:11;;;;;;;9.25;6.93;;;21.30;57.50;;;;;;2487285;55;21062;-75
2023/05/21 08:06:38;;;;;;;10.95;7.40;;;21.30;57.50;;;;;;2262122;56;20929;-71
2023/05/21 08:09:14;;;;;;;10.02;7.53;;;21.40;57.60;;;;;;2490893;55;20937;-71
2023/05/21 08:11:40;;;;;;;9.75;6.97;;;21.40;57.60;;;;;;2491741;55;22204;-75
2023/05/21 08:14:13;;;;;;;11.05;7.40;;;21.50;57.70;;;;;;2486097;55;20990;-72
2023/05/21 08:16:40;;;;;;;11.63;7.90;;;21.50;57.60;;;;;;2490855;55;21035;-73
2023/05/21 08:19:13;;;;;;;9.82;7.20;;;21.60;57.60;;;;;;2250071;55;20975;-73
2023/05/21 08:21:41;;;;;;;8.50;6.37;;;21.70;57.60;;;;;;2484372;55;21465;-72
2023/05/21 08:24:08;;;;;;;10.00;6.97;;;21.70;57.50;;;;;;2261578;56;20960;-71
2023/05/21 08:26:35;;;;;;;12.98;8.52;;;21.80;57.50;;;;;;2492034;55;20971;-71
2023/05/21 08:29:01;;;;;;;10.20;7.78;;;21.90;57.60;;;;;;2492092;55;21000;-71
2023/05/21 08:31:28;;;;;;;11.70;7.78;;;21.90;58.20;;;;;;2491889;55;21862;-71
2023/05/21 08:33:55;;;;;;;11.32;8.30;;;22.00;57.60;;;;;;2489805;55;21061;-74
2023/05/21 08:36:21;;;;;;;10.68;7.72;;;22.00;57.40;;;;;;2263024;56;20948;-71
2023/05/21 08:38:47;;;;;;;11.50;7.85;;;22.10;57.30;;;;;;2491844;55;20944;-71
2023/05/21 08:41:18;;;;;;;9.75;7.55;;;22.10;57.20;;;;;;2262629;56;20992;-74
2023/05/21 08:43:45;;;;;;;8.75;6.50;;;22.20;57.30;;;;;;2492504;55;21009;-72
2023/05/21 08:46:13;;;;;;;9.68;6.93;;;22.30;57.40;;;;;;2491991;55;21020;-71
2023/05/21 08:48:39;;;;;;;11.12;7.78;;;22.30;57.40;;;;;;2492398;55;20989;-72
2023/05/21 08:51:06;;;;;;;11.35;7.72;;;22.40;57.30;;;;;;2491387;55;20948;-71
2023/05/21 08:53:33;;;;;;;9.45;7.15;;;22.50;57.30;;;;;;2262954;56;21032;-76
2023/05/21 08:56:00;;;;;;;9.73;7.20;;;22.50;57.20;;;;;;2491805;55;21830;-74
2023/05/21 08:58:26;;;;;;;9.70;7.53;;;22.60;57.10;;;;;;2262862;56;20960;-72
2023/05/21 09:00:56;;;;;;;9.68;7.35;;;22.60;57.10;;;;;;2262548;56;20970;-72
2023/05/21 09:03:23;;;;;;;8.68;6.10;;;22.70;57.20;;;;;;2261247;56;21781;-72
2023/05/21 09:05:50;;;;;;;11.57;6.72;;;22.70;57.10;;;;;;2262713;56;20957;-71
2023/05/21 09:08:20;;;;;;;11.25;8.23;;;22.80;57.20;;;;;;2491751;55;21517;-72
2023/05/21 09:10:50;;;;;;;9.57;7.47;;;22.80;57.00;;;;;;2263595;56;20912;-73
2023/05/21 09:13:20;;;;;;;11.15;7.68;;;22.90;57.00;;;;;;2263015;56;21027;-73
2023/05/21 09:15:47;;;;;;;8.73;6.45;;;22.90;56.90;;;;;;2491793;55;21306;-72
2023/05/21 09:18:13;;;;;;;9.68;7.25;;;22.90;56.80;;;;;;2262335;55;20990;-71
2023/05/21 09:20:42;;;;;;;9.77;7.45;;;23.00;56.90;;;;;;2262149;56;20972;-75
2023/05/21 09:23:16;;;;;;;9.70;7.53;;;23.10;57.00;;;;;;2262265;56;21060;-72
2023/05/21 09:25:46;;;;;;;10.38;7.37;;;23.10;57.00;;;;;;2263118;56;21789;-72
2023/05/21 09:28:17;;;;;;;10.50;8.32;;;23.10;56.80;;;;;;2265001;56;20990;-74
2023/05/21 09:30:45;;;;;;;10.90;8.02;;;23.20;56.70;;;;;;2260068;56;20996;-72
2023/05/21 09:33:11;;;;;;;11.65;7.85;;;23.20;56.60;;;;;;2490918;55;21019;-72
2023/05/21 09:35:45;;;;;;;10.50;7.78;;;23.20;56.60;;;;;;2263217;56;20940;-71
2023/05/21 09:38:11;;;;;;;9.55;7.47;;;23.20;56.70;;;;;;2486827;55;20997;-70
2023/05/21 09:40:44;;;;;;;12.13;7.90;;;23.30;56.80;;;;;;2486375;55;21022;-74
2023/05/21 09:43:17;;;;;;;10.85;8.05;;;23.30;56.70;;;;;;2262245;56;21032;-70
2023/05/21 09:45:51;;;;;;;9.63;7.30;;;23.40;56.60;;;;;;2262990;56;20988;-71
2023/05/21 09:48:37;;;;;;;10.60;7.70;;;23.40;56.60;;;;;;2262586;56;20965;-72
2023/05/21 09:51:15;;;;;;;10.30;7.62;;;23.50;56.60;;;;;;2491618;55;20962;-73
2023/05/21 09:54:04;;;;;;;10.25;7.40;;;23.50;56.50;;;;;;2263435;56;21567;-70
2023/05/21 09:56:30;;;;;;;10.02;7.60;;;23.50;56.30;;;;;;2263052;56;21619;-72
2023/05/21 09:59:03;;;;;;;11.12;7.50;;;23.50;56.30;;;;;;2490472;55;21026;-71
2023/05/21 10:01:36;;;;;;;9.70;6.47;;;23.50;56.30;;;;;;2260306;56;21023;-74
2023/05/21 10:04:05;;;;;;;9.27;6.80;;;23.60;56.30;;;;;;2490606;55;22044;-73
2023/05/21 10:06:32;;;;;;;9.80;7.37;;;23.60;56.30;;;;;;2262186;56;20972;-72
2023/05/21 10:09:02;;;;;;;9.63;7.15;;;23.60;56.40;;;;;;2491555;55;20940;-71
2023/05/21 10:11:30;;;;;;;9.32;6.82;;;23.60;56.40;;;;;;2267014;56;21061;-74
2023/05/21 10:14:03;;;;;;;9.07;6.53;;;23.60;56.50;;;;;;2467378;55;20955;-71
2023/05/21 10:16:30;;;;;;;10.32;7.20;;;23.70;56.60;;;;;;2261847;56;21055;-70
2023/05/21 10:18:56;;;;;;;11.80;7.53;;;23.80;56.80;;;;;;2491385;55;20985;-71
2023/05/21 10:21:23;;;;;;;9.07;6.80;;;23.80;56.70;;;;;;2490721;55;21076;-70
2023/05/21 10:23:50;;;;;;;8.63;6.82;;;23.90;56.70;;;;;;2492428;55;20932;-72
2023/05/21 10:26:22;;;;;;;11.45;7.22;;;23.90;56.70;;;;;;2260129;56;21005;-70
2023/05/21 10:28:51;;;;;;;9.80;7.47;;;24.00;56.70;;;;;;2491677;55;20968;-69
2023/05/21 10:31:18;;;;;;;10.50;7.30;;;24.00;56.60;;;;;;2262127;56;21453;-70
2023/05/21 10:33:44;;;;;;;9.63;6.93;;;24.10;56.60;;;;;;2491462;55;20917;-71
2023/05/21 10:36:12;;;;;;;10.40;7.55;;;24.20;56.70;;;;;;2491433;55;20936;-70
2023/05/21 10:38:38;;;;;;;9.60;7.07;;;24.20;56.60;;;;;;2262260;56;21011;-72
2023/05/21 10:41:05;;;;;;;9.02;7.07;;;24.30;56.80;;;;;;2490433;55;20952;-71
2023/05/21 10:43:49;;;;;;;9.15;6.57;;;24.30;56.50;;;;;;2488751;55;21039;-70
2023/05/21 10:48:25;;;;;;;9.63;7.28;;;24.40;56.60;;;;;;2489844;55;20932;-70
2023/05/21 10:54:30;;;;;;;9.95;6.18;;;24.60;56.50;;;;;;2492490;55;20972;-73
2023/05/21 10:58:14;;;;;;;8.38;5.03;;;24.70;56.50;;;;;;2263307;56;20976;-69
2023/05/21 11:00:40;;;;;;;;;;;24.80;56.40;;;;;;2266605;56;20968;-74
2023/05/21 11:03:07;;;;;;;6.62;4.40;;;24.90;56.60;;;;;;2491553;55;20060;-69
2023/05/21 11:05:55;;;;;;;8.32;5.62;;;24.90;56.40;;;;;;2262671;56;21012;-74
2023/05/21 11:08:32;;;;;;;9.32;6.60;;;25.00;56.40;;;;;;2262812;56;20988;-70
2023/05/21 11:10:59;;;;;;;7.85;6.22;;;25.00;56.30;;;;;;2488076;55;21013;-70
2023/05/21 11:13:26;;;;;;;8.27;5.93;;;25.10;56.30;;;;;;2490149;55;20905;-70
2023/05/21 11:16:06;;;;;;;8.77;6.82;;;25.20;56.00;;;;;;2488556;55;20930;-70
2023/05/21 11:19:18;;;;;;;8.23;6.07;;;25.20;56.00;;;;;;2490515;55;21000;-70
2023/05/21 11:21:50;;;;;;;8.23;6.22;;;25.40;56.00;;;;;;2487177;55;21083;-72
2023/05/21 11:24:22;;;;;;;8.95;6.30;;;25.40;56.10;;;;;;2487137;55;20939;-71
2023/05/21 11:27:00;;;;;;;8.82;6.43;;;25.50;56.10;;;;;;2262380;56;20956;-71
2023/05/21 11:29:43;;;;;;;8.55;6.87;;;25.50;55.50;;;;;;2486662;55;20974;-72
2023/05/21 11:32:13;;;;;;;8.93;6.82;;;25.60;55.30;;;;;;2265127;56;21850;-71
2023/05/21 11:34:41;;;;;;;7.53;6.00;;;25.70;55.30;;;;;;2491337;55;20952;-73
2023/05/21 11:38:08;;;;;;;10.73;6.85;;;25.70;55.40;;;;;;2262462;56;20928;-72
2023/05/21 11:40:35;;;;;;;8.68;6.22;;;25.80;55.60;;;;;;2491251;55;21504;-70
2023/05/21 11:43:03;;;;;;;10.70;6.43;;;25.90;55.60;;;;;;2262900;56;20944;-71
2023/05/21 11:45:31;;;;;;;8.77;6.40;;;25.90;55.40;;;;;;2491708;55;21521;-70
2023/05/21 11:47:58;;;;;;;8.45;6.43;;;26.00;55.40;;;;;;2262750;56;21065;-72
2023/05/21 11:50:26;;;;;;;8.43;6.30;;;26.10;55.20;;;;;;2490998;55;22089;-72
2023/05/21 11:52:52;;;;;;;10.20;7.20;;;26.10;55.10;;;;;;2260721;56;20977;-73
2023/05/21 11:55:23;;;;;;;10.32;7.37;;;26.20;54.90;;;;;;2490207;55;21000;-71
2023/05/21 11:57:54;;;;;;;8.52;6.72;;;26.30;54.50;;;;;;2491690;55;21727;-71
2023/05/21 12:00:21;;;;;;;9.52;6.82;;;26.30;54.50;;;;;;2490158;55;21016;-69
2023/05/21 12:02:51;;;;;;;8.27;6.18;;;26.40;54.40;;;;;;2262174;56;20984;-70
2023/05/21 12:05:18;;;;;;;9.77;7.28;;;26.40;54.20;;;;;;2489734;55;20933;-73
2023/05/21 12:07:50;;;;;;;8.10;6.53;;;26.40;54.00;;;;;;2491138;55;21385;-74
2023/05/21 12:10:20;;;;;;;9.35;6.80;;;26.40;53.90;;;;;;2488538;55;20992;-72
2023/05/21 12:12:48;;;;;;;9.20;7.12;;;26.40;53.90;;;;;;2259128;56;21008;-70
2023/05/21 12:15:21;;;;;;;8.65;7.03;;;26.50;54.00;;;;;;2261644;56;20921;-74
2023/05/21 12:17:48;;;;;;;9.07;6.80;;;26.50;54.00;;;;;;2491264;55;21532;-70
2023/05/21 12:20:15;;;;;;;8.93;6.47;;;26.60;54.00;;;;;;2490549;55;20989;-71
2023/05/21 12:22:42;;;;;;;9.35;6.97;;;26.60;54.00;;;;;;2262640;56;20976;-71
2023/05/21 12:25:09;;;;;;;9.02;7.37;;;26.70;54.00;;;;;;2491682;55;20992;-71
2023/05/21 12:27:36;;;;;;;8.80;6.70;;;26.70;53.70;;;;;;2262665;56;20981;-71
2023/05/21 12:30:02;;;;;;;10.10;7.22;;;26.70;53.70;;;;;;2262442;56;20968;-73
2023/05/21 12:32:30;;;;;;;8.85;7.03;;;26.70;53.80;;;;;;2261436;56;21485;-71
2023/05/21 12:34:59;;;;;;;10.55;6.97;;;26.80;53.70;;;;;;2262160;56;20977;-71
2023/05/21 12:37:30;;;;;;;8.10;6.30;;;26.80;53.60;;;;;;2261745;55;21024;-71
2023/05/21 12:39:59;;;;;;;9.00;6.35;;;26.90;53.80;;;;;;2262509;56;21004;-70
2023/05/21 12:42:33;;;;;;;6.85;5.75;;;26.90;53.70;;;;;;2262103;56;21003;-70
2023/05/21 12:44:59;;;;;;;8.52;6.93;;;27.00;53.80;;;;;;2265602;56;21821;-73
2023/05/21 12:47:26;;;;;;;8.05;6.37;;;27.00;53.60;;;;;;2488150;55;20924;-71
2023/05/21 12:49:55;;;;;;;8.20;6.62;;;27.10;53.50;;;;;;2262466;56;20946;-71
2023/05/21 12:52:21;;;;;;;9.13;6.93;;;27.20;53.30;;;;;;2261238;56;20948;-74
2023/05/21 12:54:50;;;;;;;7.65;5.95;;;27.20;53.10;;;;;;2490920;55;21012;-75
2023/05/21 12:57:17;;;;;;;8.82;6.03;;;27.30;53.30;;;;;;2264636;56;21012;-71